sensor_id;sensor_type;location;lat;lon;timestamp;P1;durP1;ratioP1;P2;durP2;ratioP2
53757;SDS011;39674;59.860;30.672;2022-08-21T00:02:29;12.32;;;4.55;;
53757;SDS011;39674;59.860;30.672;2022-08-21T00:05:01;14.85;;;5.10;;
53757;SDS011;39674;59.860;30.672;2022-08-21T00:07:34;18.35;;;4.90;;
53757;SDS011;39674;59.860;30.672;2022-08-21T00:10:09;11.98;;;4.97;;
53757;SDS011;39674;59.860;30.672;2022-08-21T00:12:40;14.07;;;4.60;;
53757;SDS011;39674;59.860;30.672;2022-08-21T00:15:12;12.07;;;4.78;;
53757;SDS011;39674;59.860;30.672;2022-08-21T00:17:51;13.32;;;6.38;;
53757;SDS011;39674;59.860;30.672;2022-08-21T00:20:23;18.77;;;6.82;;
53757;SDS011;39674;59.860;30.672;2022-08-21T00:22:53;29.52;;;14.35;;
53757;SDS011;39674;59.860;30.672;2022-08-21T00:25:33;70.07;;;32.70;;
53757;SDS011;39674;59.860;30.672;2022-08-21T00:28:03;104.35;;;45.70;;
53757;SDS011;39674;59.860;30.672;2022-08-21T00:30:37;169.75;;;76.35;;
53757;SDS011;39674;59.860;30.672;2022-08-21T00:33:08;107.82;;;47.22;;
53757;SDS011;39674;59.860;30.672;2022-08-21T00:35:40;138.75;;;59.15;;
53757;SDS011;39674;59.860;30.672;2022-08-21T00:38:11;129.35;;;59.55;;
53757;SDS011;39674;59.860;30.672;2022-08-21T00:40:41;121.55;;;53.65;;
53757;SDS011;39674;59.860;30.672;2022-08-21T00:43:13;73.03;;;34.10;;
53757;SDS011;39674;59.860;30.672;2022-08-21T00:45:45;69.82;;;31.58;;
53757;SDS011;39674;59.860;30.672;2022-08-21T00:48:14;55.50;;;28.30;;
53757;SDS011;39674;59.860;30.672;2022-08-21T00:50:46;33.28;;;16.33;;
53757;SDS011;39674;59.860;30.672;2022-08-21T00:53:21;39.78;;;15.60;;
53757;SDS011;39674;59.860;30.672;2022-08-21T00:55:56;51.80;;;23.65;;
53757;SDS011;39674;59.860;30.672;2022-08-21T00:58:26;40.33;;;20.13;;
53757;SDS011;39674;59.860;30.672;2022-08-21T01:00:58;60.28;;;34.53;;
53757;SDS011;39674;59.860;30.672;2022-08-21T01:03:31;42.88;;;25.25;;
53757;SDS011;39674;59.860;30.672;2022-08-21T01:06:06;36.03;;;23.92;;
53757;SDS011;39674;59.860;30.672;2022-08-21T01:08:37;43.65;;;24.25;;
53757;SDS011;39674;59.860;30.672;2022-08-21T01:11:11;39.92;;;25.13;;
53757;SDS011;39674;59.860;30.672;2022-08-21T01:13:40;29.48;;;17.10;;
53757;SDS011;39674;59.860;30.672;2022-08-21T01:16:13;19.77;;;9.98;;
53757;SDS011;39674;59.860;30.672;2022-08-21T01:18:45;17.45;;;8.90;;
53757;SDS011;39674;59.860;30.672;2022-08-21T01:21:16;13.50;;;7.38;;
53757;SDS011;39674;59.860;30.672;2022-08-21T01:23:50;11.18;;;5.50;;
53757;SDS011;39674;59.860;30.672;2022-08-21T01:26:22;14.38;;;5.55;;
53757;SDS011;39674;59.860;30.672;2022-08-21T01:28:54;12.75;;;6.20;;
53757;SDS011;39674;59.860;30.672;2022-08-21T01:34:00;19.38;;;4.95;;
53757;SDS011;39674;59.860;30.672;2022-08-21T01:36:30;32.50;;;6.80;;
53757;SDS011;39674;59.860;30.672;2022-08-21T01:39:00;46.30;;;7.57;;
53757;SDS011;39674;59.860;30.672;2022-08-21T01:41:30;38.75;;;8.07;;
53757;SDS011;39674;59.860;30.672;2022-08-21T01:43:59;35.00;;;6.65;;
53757;SDS011;39674;59.860;30.672;2022-08-21T01:46:30;38.47;;;7.28;;
53757;SDS011;39674;59.860;30.672;2022-08-21T01:48:59;29.67;;;7.43;;
53757;SDS011;39674;59.860;30.672;2022-08-21T01:51:32;16.02;;;5.78;;
53757;SDS011;39674;59.860;30.672;2022-08-21T01:54:03;25.73;;;7.55;;
53757;SDS011;39674;59.860;30.672;2022-08-21T01:56:35;32.63;;;9.38;;
53757;SDS011;39674;59.860;30.672;2022-08-21T01:59:08;27.95;;;9.68;;
53757;SDS011;39674;59.860;30.672;2022-08-21T02:01:37;24.88;;;8.48;;
53757;SDS011;39674;59.860;30.672;2022-08-21T02:04:07;27.25;;;8.93;;
53757;SDS011;39674;59.860;30.672;2022-08-21T02:06:40;20.67;;;6.78;;
53757;SDS011;39674;59.860;30.672;2022-08-21T02:09:12;29.88;;;7.75;;
53757;SDS011;39674;59.860;30.672;2022-08-21T02:11:43;24.65;;;7.82;;
53757;SDS011;39674;59.860;30.672;2022-08-21T02:14:13;30.77;;;11.20;;
53757;SDS011;39674;59.860;30.672;2022-08-21T02:16:44;24.65;;;9.55;;
53757;SDS011;39674;59.860;30.672;2022-08-21T02:19:14;25.95;;;6.80;;
53757;SDS011;39674;59.860;30.672;2022-08-21T02:21:47;14.05;;;6.10;;
53757;SDS011;39674;59.860;30.672;2022-08-21T02:24:18;10.77;;;5.72;;
53757;SDS011;39674;59.860;30.672;2022-08-21T02:26:49;9.88;;;5.28;;
53757;SDS011;39674;59.860;30.672;2022-08-21T02:29:18;10.80;;;6.10;;
53757;SDS011;39674;59.860;30.672;2022-08-21T02:31:47;19.23;;;6.05;;
53757;SDS011;39674;59.860;30.672;2022-08-21T02:34:16;9.07;;;4.95;;
53757;SDS011;39674;59.860;30.672;2022-08-21T02:36:53;22.30;;;5.97;;
53757;SDS011;39674;59.860;30.672;2022-08-21T02:39:24;13.13;;;6.05;;
53757;SDS011;39674;59.860;30.672;2022-08-21T02:41:53;8.98;;;5.10;;
53757;SDS011;39674;59.860;30.672;2022-08-21T02:44:21;9.70;;;5.30;;
53757;SDS011;39674;59.860;30.672;2022-08-21T02:46:52;13.45;;;5.30;;
53757;SDS011;39674;59.860;30.672;2022-08-21T02:49:24;8.27;;;5.15;;
53757;SDS011;39674;59.860;30.672;2022-08-21T02:51:55;10.52;;;6.13;;
53757;SDS011;39674;59.860;30.672;2022-08-21T02:54:24;14.35;;;6.20;;
53757;SDS011;39674;59.860;30.672;2022-08-21T02:57:04;8.95;;;5.30;;
53757;SDS011;39674;59.860;30.672;2022-08-21T02:59:38;11.27;;;5.68;;
53757;SDS011;39674;59.860;30.672;2022-08-21T03:02:07;16.23;;;6.10;;
53757;SDS011;39674;59.860;30.672;2022-08-21T03:04:37;29.00;;;6.75;;
53757;SDS011;39674;59.860;30.672;2022-08-21T03:07:11;14.02;;;5.70;;
53757;SDS011;39674;59.860;30.672;2022-08-21T03:09:46;10.80;;;5.88;;
53757;SDS011;39674;59.860;30.672;2022-08-21T03:12:16;11.82;;;7.00;;
53757;SDS011;39674;59.860;30.672;2022-08-21T03:14:50;15.32;;;6.78;;
53757;SDS011;39674;59.860;30.672;2022-08-21T03:17:20;22.90;;;7.78;;
53757;SDS011;39674;59.860;30.672;2022-08-21T03:19:50;14.85;;;7.28;;
53757;SDS011;39674;59.860;30.672;2022-08-21T03:22:24;14.25;;;8.00;;
53757;SDS011;39674;59.860;30.672;2022-08-21T03:24:53;15.90;;;7.43;;
53757;SDS011;39674;59.860;30.672;2022-08-21T03:27:23;16.15;;;7.63;;
53757;SDS011;39674;59.860;30.672;2022-08-21T03:29:53;12.32;;;7.63;;
53757;SDS011;39674;59.860;30.672;2022-08-21T03:32:22;14.45;;;7.63;;
53757;SDS011;39674;59.860;30.672;2022-08-21T03:34:51;20.75;;;8.15;;
53757;SDS011;39674;59.860;30.672;2022-08-21T03:37:22;13.10;;;7.10;;
53757;SDS011;39674;59.860;30.672;2022-08-21T03:39:50;11.90;;;7.25;;
53757;SDS011;39674;59.860;30.672;2022-08-21T03:42:21;20.45;;;7.65;;
53757;SDS011;39674;59.860;30.672;2022-08-21T03:44:53;12.40;;;7.43;;
53757;SDS011;39674;59.860;30.672;2022-08-21T03:47:21;17.58;;;7.60;;
53757;SDS011;39674;59.860;30.672;2022-08-21T03:49:50;12.80;;;7.32;;
53757;SDS011;39674;59.860;30.672;2022-08-21T03:52:18;16.33;;;7.43;;
53757;SDS011;39674;59.860;30.672;2022-08-21T03:54:49;15.05;;;7.65;;
53757;SDS011;39674;59.860;30.672;2022-08-21T03:57:20;15.02;;;7.78;;
53757;SDS011;39674;59.860;30.672;2022-08-21T03:59:49;12.60;;;7.78;;
53757;SDS011;39674;59.860;30.672;2022-08-21T04:02:19;17.17;;;7.07;;
53757;SDS011;39674;59.860;30.672;2022-08-21T04:04:51;11.65;;;6.72;;
53757;SDS011;39674;59.860;30.672;2022-08-21T04:07:22;21.27;;;7.50;;
53757;SDS011;39674;59.860;30.672;2022-08-21T04:09:54;23.25;;;8.35;;
53757;SDS011;39674;59.860;30.672;2022-08-21T04:12:23;30.02;;;7.78;;
53757;SDS011;39674;59.860;30.672;2022-08-21T04:14:52;22.80;;;7.13;;
53757;SDS011;39674;59.860;30.672;2022-08-21T04:17:21;16.45;;;7.35;;
53757;SDS011;39674;59.860;30.672;2022-08-21T04:19:50;18.95;;;8.10;;
53757;SDS011;39674;59.860;30.672;2022-08-21T04:22:23;19.50;;;7.13;;
53757;SDS011;39674;59.860;30.672;2022-08-21T04:24:54;17.90;;;7.10;;
53757;SDS011;39674;59.860;30.672;2022-08-21T04:27:23;14.80;;;7.10;;
53757;SDS011;39674;59.860;30.672;2022-08-21T04:29:52;17.55;;;8.13;;
53757;SDS011;39674;59.860;30.672;2022-08-21T04:32:21;19.63;;;7.05;;
53757;SDS011;39674;59.860;30.672;2022-08-21T04:34:58;25.80;;;7.63;;
53757;SDS011;39674;59.860;30.672;2022-08-21T04:37:27;19.33;;;7.63;;
53757;SDS011;39674;59.860;30.672;2022-08-21T04:39:57;34.90;;;9.15;;
53757;SDS011;39674;59.860;30.672;2022-08-21T04:42:27;28.73;;;8.50;;
53757;SDS011;39674;59.860;30.672;2022-08-21T04:44:56;25.25;;;8.10;;
53757;SDS011;39674;59.860;30.672;2022-08-21T04:47:27;23.15;;;7.03;;
53757;SDS011;39674;59.860;30.672;2022-08-21T04:49:57;17.48;;;7.22;;
53757;SDS011;39674;59.860;30.672;2022-08-21T04:52:26;13.10;;;7.72;;
53757;SDS011;39674;59.860;30.672;2022-08-21T04:55:06;17.80;;;7.32;;
53757;SDS011;39674;59.860;30.672;2022-08-21T04:57:36;9.23;;;6.22;;
53757;SDS011;39674;59.860;30.672;2022-08-21T05:00:10;18.93;;;6.53;;
53757;SDS011;39674;59.860;30.672;2022-08-21T05:02:40;29.23;;;7.90;;
53757;SDS011;39674;59.860;30.672;2022-08-21T05:05:09;20.13;;;6.45;;
53757;SDS011;39674;59.860;30.672;2022-08-21T05:07:40;25.08;;;7.03;;
53757;SDS011;39674;59.860;30.672;2022-08-21T05:10:14;31.30;;;7.68;;
53757;SDS011;39674;59.860;30.672;2022-08-21T05:12:49;20.95;;;7.53;;
53757;SDS011;39674;59.860;30.672;2022-08-21T05:15:18;35.15;;;8.10;;
53757;SDS011;39674;59.860;30.672;2022-08-21T05:17:48;18.80;;;7.20;;
53757;SDS011;39674;59.860;30.672;2022-08-21T05:20:21;26.67;;;8.32;;
53757;SDS011;39674;59.860;30.672;2022-08-21T05:22:51;23.33;;;6.70;;
53757;SDS011;39674;59.860;30.672;2022-08-21T05:25:21;16.33;;;6.20;;
53757;SDS011;39674;59.860;30.672;2022-08-21T05:27:50;17.25;;;5.88;;
53757;SDS011;39674;59.860;30.672;2022-08-21T05:30:20;12.35;;;6.97;;
53757;SDS011;39674;59.860;30.672;2022-08-21T05:32:49;12.23;;;6.70;;
53757;SDS011;39674;59.860;30.672;2022-08-21T05:35:26;17.45;;;6.50;;
53757;SDS011;39674;59.860;30.672;2022-08-21T05:37:57;24.58;;;7.20;;
53757;SDS011;39674;59.860;30.672;2022-08-21T05:40:32;15.82;;;6.32;;
53757;SDS011;39674;59.860;30.672;2022-08-21T05:43:03;31.83;;;7.90;;
53757;SDS011;39674;59.860;30.672;2022-08-21T05:45:36;22.88;;;7.45;;
53757;SDS011;39674;59.860;30.672;2022-08-21T05:48:09;23.73;;;7.25;;
53757;SDS011;39674;59.860;30.672;2022-08-21T05:50:41;34.03;;;7.90;;
53757;SDS011;39674;59.860;30.672;2022-08-21T05:53:13;20.63;;;7.22;;
53757;SDS011;39674;59.860;30.672;2022-08-21T05:55:49;12.63;;;6.20;;
53757;SDS011;39674;59.860;30.672;2022-08-21T05:58:22;23.50;;;7.45;;
53757;SDS011;39674;59.860;30.672;2022-08-21T06:00:52;19.42;;;8.70;;
53757;SDS011;39674;59.860;30.672;2022-08-21T06:03:23;10.57;;;6.63;;
53757;SDS011;39674;59.860;30.672;2022-08-21T06:05:54;16.23;;;7.07;;
53757;SDS011;39674;59.860;30.672;2022-08-21T06:08:39;28.17;;;7.93;;
53757;SDS011;39674;59.860;30.672;2022-08-21T06:11:39;26.40;;;7.35;;
53757;SDS011;39674;59.860;30.672;2022-08-21T06:14:16;28.75;;;6.60;;
53757;SDS011;39674;59.860;30.672;2022-08-21T06:16:50;33.10;;;7.53;;
53757;SDS011;39674;59.860;30.672;2022-08-21T06:19:27;27.08;;;7.18;;
53757;SDS011;39674;59.860;30.672;2022-08-21T06:21:59;9.43;;;5.97;;
53757;SDS011;39674;59.860;30.672;2022-08-21T06:24:59;11.90;;;7.03;;
53757;SDS011;39674;59.860;30.672;2022-08-21T06:30:47;17.63;;;6.55;;
53757;SDS011;39674;59.860;30.672;2022-08-21T06:33:40;15.43;;;6.40;;
53757;SDS011;39674;59.860;30.672;2022-08-21T06:36:16;18.73;;;6.28;;
53757;SDS011;39674;59.860;30.672;2022-08-21T06:38:47;14.70;;;6.40;;
53757;SDS011;39674;59.860;30.672;2022-08-21T06:41:40;19.80;;;6.72;;
53757;SDS011;39674;59.860;30.672;2022-08-21T06:44:11;17.95;;;5.93;;
53757;SDS011;39674;59.860;30.672;2022-08-21T06:46:43;16.17;;;6.13;;
53757;SDS011;39674;59.860;30.672;2022-08-21T06:49:15;48.97;;;8.32;;
53757;SDS011;39674;59.860;30.672;2022-08-21T06:51:44;40.92;;;7.68;;
53757;SDS011;39674;59.860;30.672;2022-08-21T06:54:30;20.65;;;5.88;;
53757;SDS011;39674;59.860;30.672;2022-08-21T06:57:06;25.23;;;6.68;;
53757;SDS011;39674;59.860;30.672;2022-08-21T06:59:57;13.75;;;5.35;;
53757;SDS011;39674;59.860;30.672;2022-08-21T07:02:31;10.30;;;5.18;;
53757;SDS011;39674;59.860;30.672;2022-08-21T07:05:09;14.43;;;5.40;;
53757;SDS011;39674;59.860;30.672;2022-08-21T07:07:58;14.60;;;5.70;;
53757;SDS011;39674;59.860;30.672;2022-08-21T07:13:03;16.05;;;5.85;;
53757;SDS011;39674;59.860;30.672;2022-08-21T07:15:33;17.08;;;6.88;;
53757;SDS011;39674;59.860;30.672;2022-08-21T07:18:04;21.35;;;6.97;;
53757;SDS011;39674;59.860;30.672;2022-08-21T07:20:50;11.20;;;6.43;;
53757;SDS011;39674;59.860;30.672;2022-08-21T07:23:39;18.25;;;6.28;;
53757;SDS011;39674;59.860;30.672;2022-08-21T07:26:20;23.70;;;6.50;;
53757;SDS011;39674;59.860;30.672;2022-08-21T07:28:59;24.80;;;6.03;;
53757;SDS011;39674;59.860;30.672;2022-08-21T07:31:36;20.48;;;6.45;;
53757;SDS011;39674;59.860;30.672;2022-08-21T07:34:06;19.50;;;5.78;;
53757;SDS011;39674;59.860;30.672;2022-08-21T07:36:40;15.60;;;5.90;;
53757;SDS011;39674;59.860;30.672;2022-08-21T07:39:09;37.50;;;7.72;;
53757;SDS011;39674;59.860;30.672;2022-08-21T07:44:26;16.55;;;6.82;;
53757;SDS011;39674;59.860;30.672;2022-08-21T07:47:01;25.00;;;6.50;;
53757;SDS011;39674;59.860;30.672;2022-08-21T07:49:35;21.58;;;6.07;;
53757;SDS011;39674;59.860;30.672;2022-08-21T07:52:10;9.35;;;5.80;;
53757;SDS011;39674;59.860;30.672;2022-08-21T07:54:57;24.80;;;6.47;;
53757;SDS011;39674;59.860;30.672;2022-08-21T07:57:35;18.35;;;5.70;;
53757;SDS011;39674;59.860;30.672;2022-08-21T08:00:20;8.55;;;6.22;;
53757;SDS011;39674;59.860;30.672;2022-08-21T08:02:54;10.82;;;5.38;;
53757;SDS011;39674;59.860;30.672;2022-08-21T08:05:30;11.88;;;5.78;;
53757;SDS011;39674;59.860;30.672;2022-08-21T08:08:09;14.57;;;5.70;;
53757;SDS011;39674;59.860;30.672;2022-08-21T08:10:42;12.07;;;5.38;;
53757;SDS011;39674;59.860;30.672;2022-08-21T08:13:14;12.77;;;6.22;;
53757;SDS011;39674;59.860;30.672;2022-08-21T08:15:43;17.45;;;8.15;;
53757;SDS011;39674;59.860;30.672;2022-08-21T08:18:26;8.35;;;5.47;;
53757;SDS011;39674;59.860;30.672;2022-08-21T08:20:58;12.07;;;6.15;;
53757;SDS011;39674;59.860;30.672;2022-08-21T08:23:27;16.17;;;6.03;;
53757;SDS011;39674;59.860;30.672;2022-08-21T08:25:58;12.65;;;6.35;;
53757;SDS011;39674;59.860;30.672;2022-08-21T08:28:31;16.75;;;8.18;;
53757;SDS011;39674;59.860;30.672;2022-08-21T08:31:01;38.40;;;25.05;;
53757;SDS011;39674;59.860;30.672;2022-08-21T08:33:36;25.70;;;7.40;;
53757;SDS011;39674;59.860;30.672;2022-08-21T08:36:14;21.27;;;7.40;;
53757;SDS011;39674;59.860;30.672;2022-08-21T08:38:53;19.08;;;6.50;;
53757;SDS011;39674;59.860;30.672;2022-08-21T08:41:25;37.33;;;10.05;;
53757;SDS011;39674;59.860;30.672;2022-08-21T08:43:59;18.48;;;6.22;;
53757;SDS011;39674;59.860;30.672;2022-08-21T08:46:38;20.25;;;5.50;;
53757;SDS011;39674;59.860;30.672;2022-08-21T08:49:17;10.15;;;5.97;;
53757;SDS011;39674;59.860;30.672;2022-08-21T08:51:57;22.55;;;8.77;;
53757;SDS011;39674;59.860;30.672;2022-08-21T08:54:31;16.52;;;8.30;;
53757;SDS011;39674;59.860;30.672;2022-08-21T08:57:13;11.88;;;7.43;;
53757;SDS011;39674;59.860;30.672;2022-08-21T08:59:50;22.05;;;8.68;;
53757;SDS011;39674;59.860;30.672;2022-08-21T09:02:30;19.13;;;7.28;;
53757;SDS011;39674;59.860;30.672;2022-08-21T09:05:38;18.58;;;9.43;;
53757;SDS011;39674;59.860;30.672;2022-08-21T09:08:22;48.20;;;24.10;;
53757;SDS011;39674;59.860;30.672;2022-08-21T09:11:20;46.42;;;19.38;;
53757;SDS011;39674;59.860;30.672;2022-08-21T09:14:00;16.00;;;8.13;;
53757;SDS011;39674;59.860;30.672;2022-08-21T09:16:47;36.92;;;6.97;;
53757;SDS011;39674;59.860;30.672;2022-08-21T09:19:36;13.82;;;7.57;;
53757;SDS011;39674;59.860;30.672;2022-08-21T09:22:23;24.40;;;6.93;;
53757;SDS011;39674;59.860;30.672;2022-08-21T09:25:07;18.83;;;9.05;;
53757;SDS011;39674;59.860;30.672;2022-08-21T09:27:41;18.25;;;6.07;;
53757;SDS011;39674;59.860;30.672;2022-08-21T09:30:15;15.73;;;6.80;;
53757;SDS011;39674;59.860;30.672;2022-08-21T09:33:03;14.55;;;6.82;;
53757;SDS011;39674;59.860;30.672;2022-08-21T09:35:47;12.98;;;9.35;;
53757;SDS011;39674;59.860;30.672;2022-08-21T09:38:26;10.15;;;6.82;;
53757;SDS011;39674;59.860;30.672;2022-08-21T09:40:59;15.98;;;6.30;;
53757;SDS011;39674;59.860;30.672;2022-08-21T09:43:31;8.27;;;6.45;;
53757;SDS011;39674;59.860;30.672;2022-08-21T09:46:02;16.58;;;7.32;;
53757;SDS011;39674;59.860;30.672;2022-08-21T09:48:50;11.80;;;6.53;;
53757;SDS011;39674;59.860;30.672;2022-08-21T09:51:22;10.65;;;6.70;;
53757;SDS011;39674;59.860;30.672;2022-08-21T09:54:07;9.20;;;6.80;;
53757;SDS011;39674;59.860;30.672;2022-08-21T09:56:53;10.38;;;6.65;;
53757;SDS011;39674;59.860;30.672;2022-08-21T09:59:43;10.30;;;6.47;;
53757;SDS011;39674;59.860;30.672;2022-08-21T10:05:03;8.55;;;6.25;;
53757;SDS011;39674;59.860;30.672;2022-08-21T10:07:43;8.30;;;6.20;;
53757;SDS011;39674;59.860;30.672;2022-08-21T10:10:18;11.27;;;6.30;;
53757;SDS011;39674;59.860;30.672;2022-08-21T10:12:49;11.45;;;7.00;;
53757;SDS011;39674;59.860;30.672;2022-08-21T10:15:27;13.90;;;6.72;;
53757;SDS011;39674;59.860;30.672;2022-08-21T10:18:12;33.40;;;7.60;;
53757;SDS011;39674;59.860;30.672;2022-08-21T10:20:58;15.05;;;6.72;;
53757;SDS011;39674;59.860;30.672;2022-08-21T10:26:19;19.98;;;7.05;;
53757;SDS011;39674;59.860;30.672;2022-08-21T10:29:06;13.82;;;5.95;;
53757;SDS011;39674;59.860;30.672;2022-08-21T10:31:46;14.50;;;6.43;;
53757;SDS011;39674;59.860;30.672;2022-08-21T10:34:31;14.13;;;7.07;;
53757;SDS011;39674;59.860;30.672;2022-08-21T10:37:22;12.75;;;7.05;;
53757;SDS011;39674;59.860;30.672;2022-08-21T10:40:06;22.60;;;7.63;;
53757;SDS011;39674;59.860;30.672;2022-08-21T10:42:49;15.63;;;6.47;;
53757;SDS011;39674;59.860;30.672;2022-08-21T10:45:32;9.90;;;6.40;;
53757;SDS011;39674;59.860;30.672;2022-08-21T10:48:10;17.88;;;7.15;;
53757;SDS011;39674;59.860;30.672;2022-08-21T10:51:12;15.25;;;6.78;;
53757;SDS011;39674;59.860;30.672;2022-08-21T10:54:02;12.15;;;6.35;;
53757;SDS011;39674;59.860;30.672;2022-08-21T10:56:49;16.30;;;6.68;;
53757;SDS011;39674;59.860;30.672;2022-08-21T10:59:38;24.83;;;6.47;;
53757;SDS011;39674;59.860;30.672;2022-08-21T11:02:46;11.25;;;6.10;;
53757;SDS011;39674;59.860;30.672;2022-08-21T11:05:30;18.30;;;6.15;;
53757;SDS011;39674;59.860;30.672;2022-08-21T11:08:31;16.30;;;5.80;;
53757;SDS011;39674;59.860;30.672;2022-08-21T11:11:34;13.30;;;6.60;;
53757;SDS011;39674;59.860;30.672;2022-08-21T11:17:51;10.25;;;5.45;;
53757;SDS011;39674;59.860;30.672;2022-08-21T11:20:59;9.15;;;5.50;;
53757;SDS011;39674;59.860;30.672;2022-08-21T11:23:45;12.25;;;4.82;;
53757;SDS011;39674;59.860;30.672;2022-08-21T11:26:42;17.25;;;5.80;;
53757;SDS011;39674;59.860;30.672;2022-08-21T11:51:25;13.65;;;5.63;;
53757;SDS011;39674;59.860;30.672;2022-08-21T11:54:13;9.70;;;5.30;;
53757;SDS011;39674;59.860;30.672;2022-08-21T12:04:52;14.65;;;5.63;;
53757;SDS011;39674;59.860;30.672;2022-08-21T12:08:03;14.07;;;5.72;;
53757;SDS011;39674;59.860;30.672;2022-08-21T12:11:32;13.77;;;6.60;;
53757;SDS011;39674;59.860;30.672;2022-08-21T12:13:54;21.98;;;5.80;;
53757;SDS011;39674;59.860;30.672;2022-08-21T12:16:53;23.42;;;6.18;;
53757;SDS011;39674;59.860;30.672;2022-08-21T12:19:33;11.52;;;5.47;;
53757;SDS011;39674;59.860;30.672;2022-08-21T12:22:09;21.92;;;7.53;;
53757;SDS011;39674;59.860;30.672;2022-08-21T12:27:25;14.50;;;6.20;;
53757;SDS011;39674;59.860;30.672;2022-08-21T12:30:01;16.23;;;5.20;;
53757;SDS011;39674;59.860;30.672;2022-08-21T12:32:44;19.00;;;5.05;;
53757;SDS011;39674;59.860;30.672;2022-08-21T12:35:24;15.05;;;6.13;;
53757;SDS011;39674;59.860;30.672;2022-08-21T12:38:07;28.85;;;5.55;;
53757;SDS011;39674;59.860;30.672;2022-08-21T12:40:52;12.98;;;5.60;;
53757;SDS011;39674;59.860;30.672;2022-08-21T12:43:25;14.88;;;5.68;;
53757;SDS011;39674;59.860;30.672;2022-08-21T12:46:04;9.43;;;5.13;;
53757;SDS011;39674;59.860;30.672;2022-08-21T12:48:52;15.88;;;5.30;;
53757;SDS011;39674;59.860;30.672;2022-08-21T12:51:46;9.30;;;5.68;;
53757;SDS011;39674;59.860;30.672;2022-08-21T12:54:37;12.75;;;4.85;;
53757;SDS011;39674;59.860;30.672;2022-08-21T12:57:19;10.25;;;5.40;;
53757;SDS011;39674;59.860;30.672;2022-08-21T12:59:54;22.10;;;6.10;;
53757;SDS011;39674;59.860;30.672;2022-08-21T13:02:42;18.73;;;8.95;;
53757;SDS011;39674;59.860;30.672;2022-08-21T13:05:25;17.42;;;5.65;;
53757;SDS011;39674;59.860;30.672;2022-08-21T13:08:12;13.38;;;5.40;;
53757;SDS011;39674;59.860;30.672;2022-08-21T13:11:00;17.63;;;6.57;;
53757;SDS011;39674;59.860;30.672;2022-08-21T13:13:50;9.27;;;5.60;;
53757;SDS011;39674;59.860;30.672;2022-08-21T13:16:23;10.65;;;5.38;;
53757;SDS011;39674;59.860;30.672;2022-08-21T13:18:58;13.45;;;5.68;;
53757;SDS011;39674;59.860;30.672;2022-08-21T13:21:33;14.82;;;4.82;;
53757;SDS011;39674;59.860;30.672;2022-08-21T13:24:37;8.48;;;5.07;;
53757;SDS011;39674;59.860;30.672;2022-08-21T13:27:22;11.82;;;4.53;;
53757;SDS011;39674;59.860;30.672;2022-08-21T13:30:04;14.70;;;4.35;;
53757;SDS011;39674;59.860;30.672;2022-08-21T13:32:44;15.77;;;4.97;;
53757;SDS011;39674;59.860;30.672;2022-08-21T13:35:30;12.70;;;6.07;;
53757;SDS011;39674;59.860;30.672;2022-08-21T13:41:06;9.63;;;4.68;;
53757;SDS011;39674;59.860;30.672;2022-08-21T13:43:49;16.70;;;5.35;;
53757;SDS011;39674;59.860;30.672;2022-08-21T13:46:30;23.42;;;4.88;;
53757;SDS011;39674;59.860;30.672;2022-08-21T13:49:09;19.85;;;6.55;;
53757;SDS011;39674;59.860;30.672;2022-08-21T13:54:42;11.50;;;4.38;;
53757;SDS011;39674;59.860;30.672;2022-08-21T13:57:25;11.27;;;4.88;;
53757;SDS011;39674;59.860;30.672;2022-08-21T14:00:10;18.10;;;5.30;;
53757;SDS011;39674;59.860;30.672;2022-08-21T14:02:43;18.90;;;5.00;;
53757;SDS011;39674;59.860;30.672;2022-08-21T14:05:28;17.27;;;4.63;;
53757;SDS011;39674;59.860;30.672;2022-08-21T14:08:01;8.32;;;4.28;;
53757;SDS011;39674;59.860;30.672;2022-08-21T14:10:47;14.43;;;4.85;;
53757;SDS011;39674;59.860;30.672;2022-08-21T14:13:44;13.75;;;5.00;;
53757;SDS011;39674;59.860;30.672;2022-08-21T14:16:19;12.82;;;6.20;;
53757;SDS011;39674;59.860;30.672;2022-08-21T14:18:53;23.83;;;4.97;;
53757;SDS011;39674;59.860;30.672;2022-08-21T14:21:47;22.20;;;5.80;;
53757;SDS011;39674;59.860;30.672;2022-08-21T14:24:27;17.90;;;4.60;;
53757;SDS011;39674;59.860;30.672;2022-08-21T14:27:12;18.77;;;5.32;;
53757;SDS011;39674;59.860;30.672;2022-08-21T14:29:56;17.13;;;4.55;;
53757;SDS011;39674;59.860;30.672;2022-08-21T14:32:35;15.57;;;4.70;;
53757;SDS011;39674;59.860;30.672;2022-08-21T14:35:10;12.32;;;4.03;;
53757;SDS011;39674;59.860;30.672;2022-08-21T14:38:15;9.88;;;4.63;;
53757;SDS011;39674;59.860;30.672;2022-08-21T14:40:49;20.10;;;4.63;;
53757;SDS011;39674;59.860;30.672;2022-08-21T14:43:25;11.75;;;4.25;;
53757;SDS011;39674;59.860;30.672;2022-08-21T14:46:04;17.63;;;4.70;;
53757;SDS011;39674;59.860;30.672;2022-08-21T14:48:34;9.80;;;4.07;;
53757;SDS011;39674;59.860;30.672;2022-08-21T14:51:04;24.10;;;4.65;;
53757;SDS011;39674;59.860;30.672;2022-08-21T14:53:34;27.50;;;5.07;;
53757;SDS011;39674;59.860;30.672;2022-08-21T14:56:08;17.40;;;4.90;;
53757;SDS011;39674;59.860;30.672;2022-08-21T14:58:42;12.85;;;5.10;;
53757;SDS011;39674;59.860;30.672;2022-08-21T15:01:17;13.27;;;4.25;;
53757;SDS011;39674;59.860;30.672;2022-08-21T15:03:48;16.67;;;4.80;;
53757;SDS011;39674;59.860;30.672;2022-08-21T15:06:22;28.38;;;5.30;;
53757;SDS011;39674;59.860;30.672;2022-08-21T15:09:01;12.70;;;3.92;;
53757;SDS011;39674;59.860;30.672;2022-08-21T15:11:34;12.23;;;4.25;;
53757;SDS011;39674;59.860;30.672;2022-08-21T15:14:08;12.77;;;5.47;;
53757;SDS011;39674;59.860;30.672;2022-08-21T15:16:47;10.13;;;3.80;;
53757;SDS011;39674;59.860;30.672;2022-08-21T15:19:18;12.27;;;4.00;;
53757;SDS011;39674;59.860;30.672;2022-08-21T15:21:53;22.58;;;4.38;;
53757;SDS011;39674;59.860;30.672;2022-08-21T15:24:27;15.85;;;4.80;;
53757;SDS011;39674;59.860;30.672;2022-08-21T15:27:01;16.13;;;3.85;;
53757;SDS011;39674;59.860;30.672;2022-08-21T15:29:33;13.95;;;4.63;;
53757;SDS011;39674;59.860;30.672;2022-08-21T15:32:14;14.48;;;4.78;;
53757;SDS011;39674;59.860;30.672;2022-08-21T15:34:47;11.88;;;4.40;;
53757;SDS011;39674;59.860;30.672;2022-08-21T15:37:18;17.20;;;4.63;;
53757;SDS011;39674;59.860;30.672;2022-08-21T15:39:52;7.72;;;4.22;;
53757;SDS011;39674;59.860;30.672;2022-08-21T15:42:37;19.52;;;5.55;;
53757;SDS011;39674;59.860;30.672;2022-08-21T15:45:12;19.63;;;6.00;;
53757;SDS011;39674;59.860;30.672;2022-08-21T15:47:47;15.57;;;5.28;;
53757;SDS011;39674;59.860;30.672;2022-08-21T15:50:26;11.50;;;5.13;;
53757;SDS011;39674;59.860;30.672;2022-08-21T15:53:02;16.45;;;7.55;;
53757;SDS011;39674;59.860;30.672;2022-08-21T15:55:33;15.02;;;5.78;;
53757;SDS011;39674;59.860;30.672;2022-08-21T15:58:02;19.95;;;6.40;;
53757;SDS011;39674;59.860;30.672;2022-08-21T16:00:35;19.50;;;6.07;;
53757;SDS011;39674;59.860;30.672;2022-08-21T16:03:06;18.10;;;5.90;;
53757;SDS011;39674;59.860;30.672;2022-08-21T16:05:50;26.23;;;6.13;;
53757;SDS011;39674;59.860;30.672;2022-08-21T16:08:25;9.82;;;5.07;;
53757;SDS011;39674;59.860;30.672;2022-08-21T16:10:56;9.52;;;5.72;;
53757;SDS011;39674;59.860;30.672;2022-08-21T16:13:27;27.80;;;8.15;;
53757;SDS011;39674;59.860;30.672;2022-08-21T16:16:08;12.40;;;7.03;;